sensor_id;sensor_type;location;lat;lon;timestamp;P1;durP1;ratioP1;P2;durP2;ratioP2
22826;SDS011;11580;52.562;13.418;2022-11-20T00:01:34;9.57;;;8.60;;
22826;SDS011;11580;52.562;13.418;2022-11-20T00:04:01;10.63;;;9.37;;
22826;SDS011;11580;52.562;13.418;2022-11-20T00:06:29;9.93;;;8.83;;
22826;SDS011;11580;52.562;13.418;2022-11-20T00:08:57;9.30;;;8.40;;
22826;SDS011;11580;52.562;13.418;2022-11-20T00:11:27;10.23;;;9.30;;
22826;SDS011;11580;52.562;13.418;2022-11-20T00:13:56;9.70;;;8.70;;
22826;SDS011;11580;52.562;13.418;2022-11-20T00:16:27;9.70;;;8.70;;
22826;SDS011;11580;52.562;13.418;2022-11-20T00:18:58;9.50;;;8.57;;
22826;SDS011;11580;52.562;13.418;2022-11-20T00:21:26;10.20;;;9.10;;
22826;SDS011;11580;52.562;13.418;2022-11-20T00:23:55;9.60;;;8.20;;
22826;SDS011;11580;52.562;13.418;2022-11-20T00:26:24;11.50;;;10.30;;
22826;SDS011;11580;52.562;13.418;2022-11-20T00:28:53;10.40;;;9.33;;
22826;SDS011;11580;52.562;13.418;2022-11-20T00:31:22;9.60;;;8.77;;
22826;SDS011;11580;52.562;13.418;2022-11-20T00:33:51;9.47;;;8.50;;
22826;SDS011;11580;52.562;13.418;2022-11-20T00:36:20;10.47;;;8.90;;
22826;SDS011;11580;52.562;13.418;2022-11-20T00:38:50;8.80;;;7.83;;
22826;SDS011;11580;52.562;13.418;2022-11-20T00:41:19;9.83;;;8.83;;
22826;SDS011;11580;52.562;13.418;2022-11-20T00:43:47;10.83;;;9.73;;
22826;SDS011;11580;52.562;13.418;2022-11-20T00:46:14;9.53;;;8.53;;
22826;SDS011;11580;52.562;13.418;2022-11-20T00:48:43;10.23;;;8.17;;
22826;SDS011;11580;52.562;13.418;2022-11-20T00:51:12;10.30;;;9.20;;
22826;SDS011;11580;52.562;13.418;2022-11-20T00:53:43;8.03;;;7.23;;
22826;SDS011;11580;52.562;13.418;2022-11-20T00:56:12;7.80;;;7.10;;
22826;SDS011;11580;52.562;13.418;2022-11-20T00:58:42;8.80;;;8.00;;
22826;SDS011;11580;52.562;13.418;2022-11-20T01:01:11;9.67;;;8.67;;
22826;SDS011;11580;52.562;13.418;2022-11-20T01:03:41;10.70;;;9.57;;
22826;SDS011;11580;52.562;13.418;2022-11-20T01:06:12;8.20;;;7.47;;
22826;SDS011;11580;52.562;13.418;2022-11-20T01:08:43;10.77;;;8.90;;
22826;SDS011;11580;52.562;13.418;2022-11-20T01:11:12;8.20;;;7.40;;
22826;SDS011;11580;52.562;13.418;2022-11-20T01:13:42;8.53;;;7.57;;
22826;SDS011;11580;52.562;13.418;2022-11-20T01:16:11;9.27;;;8.37;;
22826;SDS011;11580;52.562;13.418;2022-11-20T01:18:42;9.17;;;8.27;;
22826;SDS011;11580;52.562;13.418;2022-11-20T01:21:11;9.07;;;8.17;;
22826;SDS011;11580;52.562;13.418;2022-11-20T01:23:41;9.27;;;8.30;;
22826;SDS011;11580;52.562;13.418;2022-11-20T01:26:11;8.47;;;7.53;;
22826;SDS011;11580;52.562;13.418;2022-11-20T01:28:41;9.17;;;8.37;;
22826;SDS011;11580;52.562;13.418;2022-11-20T01:31:13;11.50;;;10.23;;
22826;SDS011;11580;52.562;13.418;2022-11-20T01:33:43;9.23;;;8.33;;
22826;SDS011;11580;52.562;13.418;2022-11-20T01:36:12;9.67;;;8.67;;
22826;SDS011;11580;52.562;13.418;2022-11-20T01:38:41;10.90;;;8.83;;
22826;SDS011;11580;52.562;13.418;2022-11-20T01:41:11;10.47;;;9.37;;
22826;SDS011;11580;52.562;13.418;2022-11-20T01:44:02;12.27;;;8.80;;
22826;SDS011;11580;52.562;13.418;2022-11-20T01:46:30;10.13;;;9.23;;
22826;SDS011;11580;52.562;13.418;2022-11-20T01:49:00;9.40;;;8.50;;
22826;SDS011;11580;52.562;13.418;2022-11-20T01:51:38;10.30;;;8.20;;
22826;SDS011;11580;52.562;13.418;2022-11-20T01:54:13;9.63;;;8.67;;
22826;SDS011;11580;52.562;13.418;2022-11-20T01:56:44;10.77;;;9.10;;
22826;SDS011;11580;52.562;13.418;2022-11-20T01:59:15;8.53;;;7.63;;
22826;SDS011;11580;52.562;13.418;2022-11-20T02:01:46;10.53;;;9.43;;
22826;SDS011;11580;52.562;13.418;2022-11-20T02:04:14;8.50;;;7.70;;
22826;SDS011;11580;52.562;13.418;2022-11-20T02:06:43;9.23;;;8.33;;
22826;SDS011;11580;52.562;13.418;2022-11-20T02:09:19;9.63;;;8.63;;
22826;SDS011;11580;52.562;13.418;2022-11-20T02:11:46;9.93;;;8.90;;
22826;SDS011;11580;52.562;13.418;2022-11-20T02:14:14;10.67;;;9.37;;
22826;SDS011;11580;52.562;13.418;2022-11-20T02:16:44;10.73;;;9.63;;
22826;SDS011;11580;52.562;13.418;2022-11-20T02:19:17;10.80;;;9.40;;
22826;SDS011;11580;52.562;13.418;2022-11-20T02:21:52;9.63;;;8.63;;
22826;SDS011;11580;52.562;13.418;2022-11-20T02:24:29;10.97;;;9.40;;
22826;SDS011;11580;52.562;13.418;2022-11-20T02:26:57;11.17;;;9.10;;
22826;SDS011;11580;52.562;13.418;2022-11-20T02:29:31;10.47;;;9.37;;
22826;SDS011;11580;52.562;13.418;2022-11-20T02:32:05;10.13;;;9.13;;
22826;SDS011;11580;52.562;13.418;2022-11-20T02:34:43;12.13;;;10.93;;
22826;SDS011;11580;52.562;13.418;2022-11-20T02:37:10;12.60;;;10.90;;
22826;SDS011;11580;52.562;13.418;2022-11-20T02:39:39;12.27;;;10.20;;
22826;SDS011;11580;52.562;13.418;2022-11-20T02:42:08;12.00;;;10.80;;
22826;SDS011;11580;52.562;13.418;2022-11-20T02:44:35;12.07;;;10.87;;
22826;SDS011;11580;52.562;13.418;2022-11-20T02:47:02;10.97;;;9.87;;
22826;SDS011;11580;52.562;13.418;2022-11-20T02:49:30;11.60;;;10.00;;
22826;SDS011;11580;52.562;13.418;2022-11-20T02:51:58;11.00;;;9.90;;
22826;SDS011;11580;52.562;13.418;2022-11-20T02:54:25;10.90;;;9.80;;
22826;SDS011;11580;52.562;13.418;2022-11-20T02:56:54;11.53;;;10.43;;
22826;SDS011;11580;52.562;13.418;2022-11-20T02:59:21;11.97;;;10.07;;
22826;SDS011;11580;52.562;13.418;2022-11-20T03:01:48;11.13;;;9.77;;
22826;SDS011;11580;52.562;13.418;2022-11-20T03:04:16;11.70;;;10.47;;
22826;SDS011;11580;52.562;13.418;2022-11-20T03:06:43;12.20;;;10.90;;
22826;SDS011;11580;52.562;13.418;2022-11-20T03:09:10;11.27;;;10.03;;
22826;SDS011;11580;52.562;13.418;2022-11-20T03:11:38;12.27;;;10.33;;
22826;SDS011;11580;52.562;13.418;2022-11-20T03:14:07;11.47;;;10.07;;
22826;SDS011;11580;52.562;13.418;2022-11-20T03:16:34;11.33;;;10.13;;
22826;SDS011;11580;52.562;13.418;2022-11-20T03:19:01;13.70;;;12.27;;
22826;SDS011;11580;52.562;13.418;2022-11-20T03:21:28;10.50;;;9.50;;
22826;SDS011;11580;52.562;13.418;2022-11-20T03:23:55;10.60;;;9.50;;
22826;SDS011;11580;52.562;13.418;2022-11-20T03:26:23;11.83;;;10.20;;
22826;SDS011;11580;52.562;13.418;2022-11-20T03:28:53;9.90;;;9.00;;
22826;SDS011;11580;52.562;13.418;2022-11-20T03:31:24;10.40;;;9.33;;
22826;SDS011;11580;52.562;13.418;2022-11-20T03:33:55;10.83;;;9.73;;
22826;SDS011;11580;52.562;13.418;2022-11-20T03:36:23;13.20;;;10.30;;
22826;SDS011;11580;52.562;13.418;2022-11-20T03:38:52;11.23;;;10.13;;
22826;SDS011;11580;52.562;13.418;2022-11-20T03:41:21;12.73;;;10.60;;
22826;SDS011;11580;52.562;13.418;2022-11-20T03:43:51;11.63;;;10.27;;
22826;SDS011;11580;52.562;13.418;2022-11-20T03:46:20;10.60;;;9.53;;
22826;SDS011;11580;52.562;13.418;2022-11-20T03:48:49;11.80;;;10.63;;
22826;SDS011;11580;52.562;13.418;2022-11-20T03:51:17;10.20;;;9.17;;
22826;SDS011;11580;52.562;13.418;2022-11-20T03:53:47;12.17;;;9.73;;
22826;SDS011;11580;52.562;13.418;2022-11-20T03:56:16;10.77;;;9.67;;
22826;SDS011;11580;52.562;13.418;2022-11-20T03:58:46;11.50;;;9.90;;
22826;SDS011;11580;52.562;13.418;2022-11-20T04:01:14;11.57;;;10.47;;
22826;SDS011;11580;52.562;13.418;2022-11-20T04:03:44;12.07;;;10.03;;
22826;SDS011;11580;52.562;13.418;2022-11-20T04:06:14;11.97;;;10.57;;
22826;SDS011;11580;52.562;13.418;2022-11-20T04:08:43;11.60;;;10.43;;
22826;SDS011;11580;52.562;13.418;2022-11-20T04:11:12;13.83;;;11.83;;
22826;SDS011;11580;52.562;13.418;2022-11-20T04:13:41;12.30;;;11.10;;
22826;SDS011;11580;52.562;13.418;2022-11-20T04:16:13;13.50;;;11.07;;
22826;SDS011;11580;52.562;13.418;2022-11-20T04:18:40;14.10;;;12.80;;
22826;SDS011;11580;52.562;13.418;2022-11-20T04:21:08;15.17;;;12.83;;
22826;SDS011;11580;52.562;13.418;2022-11-20T04:23:37;11.37;;;10.27;;
22826;SDS011;11580;52.562;13.418;2022-11-20T04:26:06;14.40;;;12.20;;
22826;SDS011;11580;52.562;13.418;2022-11-20T04:28:35;14.13;;;12.70;;
22826;SDS011;11580;52.562;13.418;2022-11-20T04:31:04;12.80;;;11.43;;
22826;SDS011;11580;52.562;13.418;2022-11-20T04:33:32;13.87;;;12.47;;
22826;SDS011;11580;52.562;13.418;2022-11-20T04:36:01;13.37;;;11.97;;
22826;SDS011;11580;52.562;13.418;2022-11-20T04:38:31;12.47;;;11.10;;
22826;SDS011;11580;52.562;13.418;2022-11-20T04:41:00;12.27;;;11.00;;
22826;SDS011;11580;52.562;13.418;2022-11-20T04:43:29;13.33;;;12.03;;
22826;SDS011;11580;52.562;13.418;2022-11-20T04:45:58;13.23;;;11.87;;
22826;SDS011;11580;52.562;13.418;2022-11-20T04:48:27;12.40;;;11.10;;
22826;SDS011;11580;52.562;13.418;2022-11-20T04:50:55;13.03;;;11.67;;
22826;SDS011;11580;52.562;13.418;2022-11-20T04:53:23;11.67;;;10.47;;
22826;SDS011;11580;52.562;13.418;2022-11-20T04:55:50;13.07;;;11.60;;
22826;SDS011;11580;52.562;13.418;2022-11-20T04:58:19;11.90;;;10.50;;
22826;SDS011;11580;52.562;13.418;2022-11-20T05:00:46;13.77;;;12.33;;
22826;SDS011;11580;52.562;13.418;2022-11-20T05:03:13;14.50;;;12.10;;
22826;SDS011;11580;52.562;13.418;2022-11-20T05:05:40;14.33;;;11.37;;
22826;SDS011;11580;52.562;13.418;2022-11-20T05:08:07;13.60;;;11.67;;
22826;SDS011;11580;52.562;13.418;2022-11-20T05:10:34;13.17;;;11.60;;
22826;SDS011;11580;52.562;13.418;2022-11-20T05:13:02;11.77;;;10.50;;
22826;SDS011;11580;52.562;13.418;2022-11-20T05:15:30;11.77;;;9.83;;
22826;SDS011;11580;52.562;13.418;2022-11-20T05:17:58;11.80;;;10.60;;
22826;SDS011;11580;52.562;13.418;2022-11-20T05:20:25;14.17;;;11.17;;
22826;SDS011;11580;52.562;13.418;2022-11-20T05:22:55;13.03;;;11.57;;
22826;SDS011;11580;52.562;13.418;2022-11-20T05:25:23;11.83;;;10.73;;
22826;SDS011;11580;52.562;13.418;2022-11-20T05:27:50;12.10;;;10.90;;
22826;SDS011;11580;52.562;13.418;2022-11-20T05:30:17;11.97;;;10.83;;
22826;SDS011;11580;52.562;13.418;2022-11-20T05:32:46;13.80;;;10.97;;
22826;SDS011;11580;52.562;13.418;2022-11-20T05:35:13;13.47;;;12.13;;
22826;SDS011;11580;52.562;13.418;2022-11-20T05:37:40;12.87;;;11.57;;
22826;SDS011;11580;52.562;13.418;2022-11-20T05:40:08;12.60;;;11.30;;
22826;SDS011;11580;52.562;13.418;2022-11-20T05:42:37;14.77;;;10.93;;
22826;SDS011;11580;52.562;13.418;2022-11-20T05:45:04;13.33;;;11.40;;
22826;SDS011;11580;52.562;13.418;2022-11-20T05:47:33;13.73;;;10.93;;
22826;SDS011;11580;52.562;13.418;2022-11-20T05:50:02;12.43;;;11.03;;
22826;SDS011;11580;52.562;13.418;2022-11-20T05:52:30;11.20;;;9.97;;
22826;SDS011;11580;52.562;13.418;2022-11-20T05:54:57;12.20;;;10.90;;
22826;SDS011;11580;52.562;13.418;2022-11-20T05:57:24;13.50;;;10.17;;
22826;SDS011;11580;52.562;13.418;2022-11-20T05:59:51;13.03;;;11.60;;
22826;SDS011;11580;52.562;13.418;2022-11-20T06:02:19;12.80;;;11.50;;
22826;SDS011;11580;52.562;13.418;2022-11-20T06:04:46;13.10;;;11.70;;
22826;SDS011;11580;52.562;13.418;2022-11-20T06:07:15;13.73;;;10.70;;
22826;SDS011;11580;52.562;13.418;2022-11-20T06:09:42;11.37;;;10.17;;
22826;SDS011;11580;52.562;13.418;2022-11-20T06:12:09;11.77;;;10.57;;
22826;SDS011;11580;52.562;13.418;2022-11-20T06:14:36;12.97;;;10.97;;
22826;SDS011;11580;52.562;13.418;2022-11-20T06:17:03;12.43;;;10.87;;
22826;SDS011;11580;52.562;13.418;2022-11-20T06:19:30;15.70;;;11.27;;
22826;SDS011;11580;52.562;13.418;2022-11-20T06:21:58;14.47;;;11.80;;
22826;SDS011;11580;52.562;13.418;2022-11-20T06:24:26;15.20;;;12.20;;
22826;SDS011;11580;52.562;13.418;2022-11-20T06:26:53;13.97;;;11.80;;
22826;SDS011;11580;52.562;13.418;2022-11-20T06:29:20;12.90;;;11.30;;
22826;SDS011;11580;52.562;13.418;2022-11-20T06:31:48;12.20;;;10.97;;
22826;SDS011;11580;52.562;13.418;2022-11-20T06:34:15;11.47;;;10.27;;
22826;SDS011;11580;52.562;13.418;2022-11-20T06:36:42;10.30;;;9.30;;
22826;SDS011;11580;52.562;13.418;2022-11-20T06:39:09;11.60;;;9.90;;
22826;SDS011;11580;52.562;13.418;2022-11-20T06:41:38;10.40;;;9.30;;
22826;SDS011;11580;52.562;13.418;2022-11-20T06:44:05;11.40;;;8.77;;
22826;SDS011;11580;52.562;13.418;2022-11-20T06:46:32;10.67;;;9.57;;
22826;SDS011;11580;52.562;13.418;2022-11-20T06:49:00;9.80;;;8.80;;
22826;SDS011;11580;52.562;13.418;2022-11-20T06:51:27;10.47;;;9.20;;
22826;SDS011;11580;52.562;13.418;2022-11-20T06:53:54;11.27;;;10.07;;
22826;SDS011;11580;52.562;13.418;2022-11-20T06:56:21;10.07;;;9.07;;
22826;SDS011;11580;52.562;13.418;2022-11-20T06:58:50;10.23;;;9.17;;
22826;SDS011;11580;52.562;13.418;2022-11-20T07:01:17;10.50;;;9.23;;
22826;SDS011;11580;52.562;13.418;2022-11-20T07:03:44;11.63;;;10.03;;
22826;SDS011;11580;52.562;13.418;2022-11-20T07:06:14;12.10;;;9.63;;
22826;SDS011;11580;52.562;13.418;2022-11-20T07:08:42;10.47;;;9.23;;
22826;SDS011;11580;52.562;13.418;2022-11-20T07:11:11;10.70;;;9.50;;
22826;SDS011;11580;52.562;13.418;2022-11-20T07:13:39;10.60;;;9.50;;
22826;SDS011;11580;52.562;13.418;2022-11-20T07:16:08;12.33;;;11.00;;
22826;SDS011;11580;52.562;13.418;2022-11-20T07:18:35;10.40;;;9.10;;
22826;SDS011;11580;52.562;13.418;2022-11-20T07:21:04;10.23;;;9.13;;
22826;SDS011;11580;52.562;13.418;2022-11-20T07:23:33;11.00;;;8.97;;
22826;SDS011;11580;52.562;13.418;2022-11-20T07:26:02;11.67;;;10.57;;
22826;SDS011;11580;52.562;13.418;2022-11-20T07:28:30;11.37;;;10.17;;
22826;SDS011;11580;52.562;13.418;2022-11-20T07:30:58;10.70;;;9.60;;
22826;SDS011;11580;52.562;13.418;2022-11-20T07:33:27;10.73;;;9.63;;
22826;SDS011;11580;52.562;13.418;2022-11-20T07:35:54;11.30;;;10.10;;
22826;SDS011;11580;52.562;13.418;2022-11-20T07:38:21;11.27;;;9.60;;
22826;SDS011;11580;52.562;13.418;2022-11-20T07:40:48;11.17;;;10.07;;
22826;SDS011;11580;52.562;13.418;2022-11-20T07:43:20;11.00;;;9.90;;
22826;SDS011;11580;52.562;13.418;2022-11-20T07:45:47;11.87;;;10.00;;
22826;SDS011;11580;52.562;13.418;2022-11-20T07:48:14;11.53;;;10.33;;
22826;SDS011;11580;52.562;13.418;2022-11-20T07:50:43;10.67;;;9.60;;
22826;SDS011;11580;52.562;13.418;2022-11-20T07:53:10;11.17;;;10.10;;
22826;SDS011;11580;52.562;13.418;2022-11-20T07:55:37;11.33;;;10.13;;
22826;SDS011;11580;52.562;13.418;2022-11-20T07:58:05;12.03;;;10.83;;
22826;SDS011;11580;52.562;13.418;2022-11-20T08:00:32;11.50;;;10.30;;
22826;SDS011;11580;52.562;13.418;2022-11-20T08:02:59;11.80;;;10.13;;
22826;SDS011;11580;52.562;13.418;2022-11-20T08:05:29;11.20;;;10.10;;
22826;SDS011;11580;52.562;13.418;2022-11-20T08:07:58;11.83;;;10.67;;
22826;SDS011;11580;52.562;13.418;2022-11-20T08:10:25;12.20;;;10.87;;
22826;SDS011;11580;52.562;13.418;2022-11-20T08:12:52;11.90;;;10.70;;
22826;SDS011;11580;52.562;13.418;2022-11-20T08:15:38;11.53;;;10.40;;
22826;SDS011;11580;52.562;13.418;2022-11-20T08:18:06;12.07;;;10.93;;
22826;SDS011;11580;52.562;13.418;2022-11-20T08:20:36;11.23;;;10.03;;
22826;SDS011;11580;52.562;13.418;2022-11-20T08:23:06;12.13;;;10.83;;
22826;SDS011;11580;52.562;13.418;2022-11-20T08:25:34;11.73;;;10.60;;
22826;SDS011;11580;52.562;13.418;2022-11-20T08:28:04;12.60;;;10.77;;
22826;SDS011;11580;52.562;13.418;2022-11-20T08:30:33;12.67;;;11.37;;
22826;SDS011;11580;52.562;13.418;2022-11-20T08:33:01;12.17;;;10.60;;
22826;SDS011;11580;52.562;13.418;2022-11-20T08:35:32;11.30;;;10.20;;
22826;SDS011;11580;52.562;13.418;2022-11-20T08:38:01;13.23;;;10.87;;
22826;SDS011;11580;52.562;13.418;2022-11-20T08:40:29;11.33;;;10.23;;
22826;SDS011;11580;52.562;13.418;2022-11-20T08:42:57;14.10;;;11.70;;
22826;SDS011;11580;52.562;13.418;2022-11-20T08:45:25;13.07;;;10.30;;
22826;SDS011;11580;52.562;13.418;2022-11-20T08:47:52;12.13;;;10.80;;
22826;SDS011;11580;52.562;13.418;2022-11-20T08:50:19;11.47;;;10.37;;
22826;SDS011;11580;52.562;13.418;2022-11-20T08:52:46;11.40;;;10.30;;
22826;SDS011;11580;52.562;13.418;2022-11-20T08:55:13;12.77;;;10.90;;
22826;SDS011;11580;52.562;13.418;2022-11-20T08:57:42;12.10;;;10.87;;
22826;SDS011;11580;52.562;13.418;2022-11-20T09:00:09;12.90;;;11.23;;
22826;SDS011;11580;52.562;13.418;2022-11-20T09:02:38;12.47;;;11.17;;
22826;SDS011;11580;52.562;13.418;2022-11-20T09:05:05;12.00;;;10.90;;
22826;SDS011;11580;52.562;13.418;2022-11-20T09:07:33;12.17;;;10.87;;
22826;SDS011;11580;52.562;13.418;2022-11-20T09:10:00;13.87;;;11.47;;
22826;SDS011;11580;52.562;13.418;2022-11-20T09:12:28;14.20;;;10.83;;
22826;SDS011;11580;52.562;13.418;2022-11-20T09:14:56;12.27;;;10.80;;
22826;SDS011;11580;52.562;13.418;2022-11-20T09:17:24;11.60;;;9.93;;
22826;SDS011;11580;52.562;13.418;2022-11-20T09:19:51;11.67;;;10.43;;
22826;SDS011;11580;52.562;13.418;2022-11-20T09:22:18;11.53;;;10.43;;
22826;SDS011;11580;52.562;13.418;2022-11-20T09:24:45;13.30;;;12.10;;
22826;SDS011;11580;52.562;13.418;2022-11-20T09:27:12;14.17;;;12.40;;
22826;SDS011;11580;52.562;13.418;2022-11-20T09:29:39;12.83;;;11.30;;
22826;SDS011;11580;52.562;13.418;2022-11-20T09:32:08;13.33;;;11.63;;
22826;SDS011;11580;52.562;13.418;2022-11-20T09:34:35;13.17;;;11.77;;
22826;SDS011;11580;52.562;13.418;2022-11-20T09:37:02;12.73;;;11.40;;
22826;SDS011;11580;52.562;13.418;2022-11-20T09:39:29;12.40;;;11.10;;
22826;SDS011;11580;52.562;13.418;2022-11-20T09:42:04;12.10;;;10.90;;
22826;SDS011;11580;52.562;13.418;2022-11-20T09:44:49;12.10;;;10.20;;
22826;SDS011;11580;52.562;13.418;2022-11-20T09:47:41;13.20;;;11.77;;
22826;SDS011;11580;52.562;13.418;2022-11-20T09:50:29;12.23;;;11.07;;
22826;SDS011;11580;52.562;13.418;2022-11-20T09:53:04;12.97;;;11.40;;
22826;SDS011;11580;52.562;13.418;2022-11-20T09:55:45;11.53;;;9.83;;
22826;SDS011;11580;52.562;13.418;2022-11-20T09:58:14;12.80;;;10.70;;
22826;SDS011;11580;52.562;13.418;2022-11-20T10:00:52;14.63;;;11.27;;
22826;SDS011;11580;52.562;13.418;2022-11-20T10:03:24;11.57;;;10.40;;
22826;SDS011;11580;52.562;13.418;2022-11-20T10:06:08;11.67;;;10.47;;
22826;SDS011;11580;52.562;13.418;2022-11-20T10:08:41;11.43;;;10.30;;
22826;SDS011;11580;52.562;13.418;2022-11-20T10:11:21;10.93;;;9.90;;
22826;SDS011;11580;52.562;13.418;2022-11-20T10:14:00;10.30;;;9.30;;
22826;SDS011;11580;52.562;13.418;2022-11-20T10:16:46;10.60;;;9.60;;
22826;SDS011;11580;52.562;13.418;2022-11-20T10:19:37;11.40;;;10.20;;
22826;SDS011;11580;52.562;13.418;2022-11-20T10:22:30;11.13;;;10.00;;
22826;SDS011;11580;52.562;13.418;2022-11-20T10:25:18;11.33;;;10.23;;
22826;SDS011;11580;52.562;13.418;2022-11-20T10:28:10;11.43;;;10.33;;
22826;SDS011;11580;52.562;13.418;2022-11-20T10:30:52;11.63;;;10.53;;
22826;SDS011;11580;52.562;13.418;2022-11-20T10:33:27;10.17;;;9.27;;
22826;SDS011;11580;52.562;13.418;2022-11-20T10:36:07;10.77;;;9.77;;
22826;SDS011;11580;52.562;13.418;2022-11-20T10:38:43;10.13;;;9.23;;
22826;SDS011;11580;52.562;13.418;2022-11-20T10:41:17;10.30;;;9.40;;
22826;SDS011;11580;52.562;13.418;2022-11-20T10:43:52;11.13;;;9.97;;
22826;SDS011;11580;52.562;13.418;2022-11-20T10:46:33;11.10;;;10.07;;
22826;SDS011;11580;52.562;13.418;2022-11-20T10:49:11;10.50;;;9.50;;
22826;SDS011;11580;52.562;13.418;2022-11-20T10:51:47;12.07;;;10.30;;
22826;SDS011;11580;52.562;13.418;2022-11-20T10:54:31;12.33;;;9.53;;
22826;SDS011;11580;52.562;13.418;2022-11-20T10:57:10;10.93;;;9.53;;
22826;SDS011;11580;52.562;13.418;2022-11-20T11:00:00;10.70;;;9.60;;
22826;SDS011;11580;52.562;13.418;2022-11-20T11:02:32;9.80;;;8.80;;
22826;SDS011;11580;52.562;13.418;2022-11-20T11:05:11;10.77;;;9.67;;
22826;SDS011;11580;52.562;13.418;2022-11-20T11:07:50;9.27;;;8.37;;
22826;SDS011;11580;52.562;13.418;2022-11-20T11:10:24;10.80;;;9.80;;
22826;SDS011;11580;52.562;13.418;2022-11-20T11:13:02;9.90;;;9.00;;
22826;SDS011;11580;52.562;13.418;2022-11-20T11:15:30;11.10;;;10.00;;
22826;SDS011;11580;52.562;13.418;2022-11-20T11:18:07;10.37;;;9.17;;
22826;SDS011;11580;52.562;13.418;2022-11-20T11:20:36;9.50;;;8.70;;
22826;SDS011;11580;52.562;13.418;2022-11-20T11:23:10;10.67;;;9.63;;
22826;SDS011;11580;52.562;13.418;2022-11-20T11:25:57;10.40;;;9.40;;
22826;SDS011;11580;52.562;13.418;2022-11-20T11:28:27;12.30;;;11.00;;
22826;SDS011;11580;52.562;13.418;2022-11-20T11:30:55;10.27;;;9.23;;
22826;SDS011;11580;52.562;13.418;2022-11-20T11:33:23;11.77;;;10.57;;
22826;SDS011;11580;52.562;13.418;2022-11-20T11:35:52;11.73;;;10.03;;
22826;SDS011;11580;52.562;13.418;2022-11-20T11:38:27;10.67;;;9.60;;
22826;SDS011;11580;52.562;13.418;2022-11-20T11:41:00;10.00;;;9.00;;
22826;SDS011;11580;52.562;13.418;2022-11-20T11:43:30;11.20;;;10.10;;
22826;SDS011;11580;52.562;13.418;2022-11-20T11:46:24;12.47;;;11.27;;
22826;SDS011;11580;52.562;13.418;2022-11-20T11:48:57;10.50;;;9.60;;
22826;SDS011;11580;52.562;13.418;2022-11-20T11:51:28;10.40;;;9.40;;
22826;SDS011;11580;52.562;13.418;2022-11-20T11:54:09;9.73;;;8.83;;
22826;SDS011;11580;52.562;13.418;2022-11-20T11:56:43;9.20;;;8.10;;
22826;SDS011;11580;52.562;13.418;2022-11-20T11:59:12;9.97;;;9.03;;
22826;SDS011;11580;52.562;13.418;2022-11-20T12:01:50;10.10;;;8.93;;
22826;SDS011;11580;52.562;13.418;2022-11-20T12:04:25;10.47;;;9.40;;
22826;SDS011;11580;52.562;13.418;2022-11-20T12:07:10;9.17;;;8.30;;
22826;SDS011;11580;52.562;13.418;2022-11-20T12:09:48;8.80;;;7.93;;
22826;SDS011;11580;52.562;13.418;2022-11-20T12:12:22;9.97;;;9.07;;
22826;SDS011;11580;52.562;13.418;2022-11-20T12:14:57;9.80;;;8.80;;
22826;SDS011;11580;52.562;13.418;2022-11-20T12:17:25;9.70;;;8.80;;
22826;SDS011;11580;52.562;13.418;2022-11-20T12:19:52;10.17;;;9.20;;
22826;SDS011;11580;52.562;13.418;2022-11-20T12:22:35;10.00;;;8.80;;
22826;SDS011;11580;52.562;13.418;2022-11-20T12:25:18;10.90;;;8.70;;
22826;SDS011;11580;52.562;13.418;2022-11-20T12:28:00;11.20;;;9.80;;
22826;SDS011;11580;52.562;13.418;2022-11-20T12:31:14;9.53;;;8.53;;
22826;SDS011;11580;52.562;13.418;2022-11-20T12:34:14;9.33;;;8.40;;
22826;SDS011;11580;52.562;13.418;2022-11-20T12:37:09;8.57;;;7.70;;
22826;SDS011;11580;52.562;13.418;2022-11-20T12:39:55;8.80;;;7.90;;
22826;SDS011;11580;52.562;13.418;2022-11-20T12:42:34;8.67;;;7.87;;
22826;SDS011;11580;52.562;13.418;2022-11-20T12:46:00;8.30;;;7.40;;
22826;SDS011;11580;52.562;13.418;2022-11-20T12:48:47;8.70;;;7.80;;
22826;SDS011;11580;52.562;13.418;2022-11-20T12:51:53;7.37;;;6.67;;
22826;SDS011;11580;52.562;13.418;2022-11-20T12:54:49;8.37;;;6.90;;
22826;SDS011;11580;52.562;13.418;2022-11-20T12:57:39;9.63;;;7.40;;
22826;SDS011;11580;52.562;13.418;2022-11-20T13:00:17;8.27;;;7.47;;
22826;SDS011;11580;52.562;13.418;2022-11-20T13:05:59;7.87;;;7.17;;
22826;SDS011;11580;52.562;13.418;2022-11-20T13:08:37;6.60;;;5.97;;
22826;SDS011;11580;52.562;13.418;2022-11-20T13:11:10;8.70;;;7.90;;
22826;SDS011;11580;52.562;13.418;2022-11-20T13:13:52;8.30;;;7.50;;
22826;SDS011;11580;52.562;13.418;2022-11-20T13:16:45;7.73;;;7.03;;
22826;SDS011;11580;52.562;13.418;2022-11-20T13:19:20;9.47;;;7.33;;
22826;SDS011;11580;52.562;13.418;2022-11-20T13:21:48;9.37;;;7.93;;
22826;SDS011;11580;52.562;13.418;2022-11-20T13:24:24;8.87;;;7.97;;
22826;SDS011;11580;52.562;13.418;2022-11-20T13:27:02;9.80;;;8.17;;
22826;SDS011;11580;52.562;13.418;2022-11-20T13:29:34;8.83;;;6.80;;
22826;SDS011;11580;52.562;13.418;2022-11-20T13:32:05;7.50;;;6.90;;
22826;SDS011;11580;52.562;13.418;2022-11-20T13:34:50;8.03;;;7.10;;
22826;SDS011;11580;52.562;13.418;2022-11-20T13:37:24;8.57;;;7.67;;
22826;SDS011;11580;52.562;13.418;2022-11-20T13:40:04;7.30;;;6.60;;
22826;SDS011;11580;52.562;13.418;2022-11-20T13:42:39;7.87;;;7.17;;
22826;SDS011;11580;52.562;13.418;2022-11-20T13:45:22;9.10;;;8.20;;
22826;SDS011;11580;52.562;13.418;2022-11-20T13:47:52;9.23;;;8.33;;
22826;SDS011;11580;52.562;13.418;2022-11-20T13:50:21;9.17;;;8.27;;
22826;SDS011;11580;52.562;13.418;2022-11-20T13:53:14;7.93;;;7.10;;
22826;SDS011;11580;52.562;13.418;2022-11-20T13:56:01;7.87;;;7.10;;
22826;SDS011;11580;52.562;13.418;2022-11-20T13:58:40;7.53;;;6.80;;
22826;SDS011;11580;52.562;13.418;2022-11-20T14:01:23;7.40;;;6.70;;
22826;SDS011;11580;52.562;13.418;2022-11-20T14:03:52;6.90;;;6.20;;
22826;SDS011;11580;52.562;13.418;2022-11-20T14:06:22;8.37;;;7.00;;
22826;SDS011;11580;52.562;13.418;2022-11-20T14:08:54;9.10;;;8.20;;
22826;SDS011;11580;52.562;13.418;2022-11-20T14:11:23;8.00;;;7.20;;
22826;SDS011;11580;52.562;13.418;2022-11-20T14:13:52;8.93;;;6.77;;
22826;SDS011;11580;52.562;13.418;2022-11-20T14:16:27;7.37;;;6.63;;
22826;SDS011;11580;52.562;13.418;2022-11-20T14:18:57;7.97;;;7.27;;
22826;SDS011;11580;52.562;13.418;2022-11-20T14:22:10;7.43;;;6.83;;
22826;SDS011;11580;52.562;13.418;2022-11-20T14:24:45;8.53;;;7.63;;
22826;SDS011;11580;52.562;13.418;2022-11-20T14:27:14;8.53;;;7.63;;
22826;SDS011;11580;52.562;13.418;2022-11-20T14:29:44;8.00;;;7.20;;
22826;SDS011;11580;52.562;13.418;2022-11-20T14:32:17;8.53;;;7.70;;
22826;SDS011;11580;52.562;13.418;2022-11-20T14:34:50;8.43;;;7.60;;
22826;SDS011;11580;52.562;13.418;2022-11-20T14:37:19;8.77;;;7.87;;
22826;SDS011;11580;52.562;13.418;2022-11-20T14:39:51;7.77;;;7.07;;
22826;SDS011;11580;52.562;13.418;2022-11-20T14:42:20;7.70;;;6.63;;
22826;SDS011;11580;52.562;13.418;2022-11-20T14:44:50;8.27;;;7.53;;
22826;SDS011;11580;52.562;13.418;2022-11-20T14:47:23;8.30;;;7.50;;
22826;SDS011;11580;52.562;13.418;2022-11-20T14:49:53;8.73;;;7.73;;